sensor_id;sensor_type;location;lat;lon;timestamp;temperature;humidity
5218;DHT22;26539;51.064;6.346;2022-07-18T00:00:06;20.90;12.80
5218;DHT22;26539;51.064;6.346;2022-07-18T00:02:32;20.80;13.00
5218;DHT22;26539;51.064;6.346;2022-07-18T00:04:57;20.70;13.20
5218;DHT22;26539;51.064;6.346;2022-07-18T00:07:23;20.70;13.60
5218;DHT22;26539;51.064;6.346;2022-07-18T00:09:48;20.70;13.80
5218;DHT22;26539;51.064;6.346;2022-07-18T00:12:14;20.70;14.60
5218;DHT22;26539;51.064;6.346;2022-07-18T00:14:40;20.60;14.80
5218;DHT22;26539;51.064;6.346;2022-07-18T00:17:06;20.60;15.10
5218;DHT22;26539;51.064;6.346;2022-07-18T00:19:32;20.60;15.60
5218;DHT22;26539;51.064;6.346;2022-07-18T00:21:57;20.60;15.80
5218;DHT22;26539;51.064;6.346;2022-07-18T00:24:23;20.60;16.20
5218;DHT22;26539;51.064;6.346;2022-07-18T00:26:49;20.60;16.50
5218;DHT22;26539;51.064;6.346;2022-07-18T00:29:14;20.50;17.40
5218;DHT22;26539;51.064;6.346;2022-07-18T00:31:40;20.50;17.80
5218;DHT22;26539;51.064;6.346;2022-07-18T00:34:05;20.40;18.20
5218;DHT22;26539;51.064;6.346;2022-07-18T00:36:31;20.40;18.60
5218;DHT22;26539;51.064;6.346;2022-07-18T00:38:57;20.40;18.90
5218;DHT22;26539;51.064;6.346;2022-07-18T00:41:23;20.30;19.00
5218;DHT22;26539;51.064;6.346;2022-07-18T00:43:50;20.30;19.90
5218;DHT22;26539;51.064;6.346;2022-07-18T00:46:15;20.30;20.20
5218;DHT22;26539;51.064;6.346;2022-07-18T00:48:45;20.30;20.70
5218;DHT22;26539;51.064;6.346;2022-07-18T00:51:10;20.20;21.10
5218;DHT22;26539;51.064;6.346;2022-07-18T00:53:36;20.10;21.10
5218;DHT22;26539;51.064;6.346;2022-07-18T00:56:03;20.10;21.90
5218;DHT22;26539;51.064;6.346;2022-07-18T00:58:29;20.10;23.00
5218;DHT22;26539;51.064;6.346;2022-07-18T01:00:56;20.10;22.20
5218;DHT22;26539;51.064;6.346;2022-07-18T01:03:41;20.00;22.60
5218;DHT22;26539;51.064;6.346;2022-07-18T01:06:06;20.00;22.80
5218;DHT22;26539;51.064;6.346;2022-07-18T01:08:32;20.00;23.70
5218;DHT22;26539;51.064;6.346;2022-07-18T01:10:58;20.00;24.50
5218;DHT22;26539;51.064;6.346;2022-07-18T01:13:24;20.00;25.60
5218;DHT22;26539;51.064;6.346;2022-07-18T01:15:49;20.00;24.80
5218;DHT22;26539;51.064;6.346;2022-07-18T01:18:15;20.00;25.80
5218;DHT22;26539;51.064;6.346;2022-07-18T01:20:40;20.00;27.10
5218;DHT22;26539;51.064;6.346;2022-07-18T01:23:06;19.90;26.40
5218;DHT22;26539;51.064;6.346;2022-07-18T01:25:32;19.90;26.60
5218;DHT22;26539;51.064;6.346;2022-07-18T01:27:57;19.80;38.50
5218;DHT22;26539;51.064;6.346;2022-07-18T01:30:24;19.80;27.10
5218;DHT22;26539;51.064;6.346;2022-07-18T01:32:58;19.80;27.30
5218;DHT22;26539;51.064;6.346;2022-07-18T01:35:25;19.70;28.40
5218;DHT22;26539;51.064;6.346;2022-07-18T01:37:52;19.70;29.10
5218;DHT22;26539;51.064;6.346;2022-07-18T01:40:18;19.70;29.10
5218;DHT22;26539;51.064;6.346;2022-07-18T01:42:44;19.60;29.60
5218;DHT22;26539;51.064;6.346;2022-07-18T01:45:09;19.60;42.30
5218;DHT22;26539;51.064;6.346;2022-07-18T01:47:35;19.50;29.90
5218;DHT22;26539;51.064;6.346;2022-07-18T01:50:01;19.50;31.20
5218;DHT22;26539;51.064;6.346;2022-07-18T01:52:26;19.50;32.10
5218;DHT22;26539;51.064;6.346;2022-07-18T01:54:52;19.40;32.40
5218;DHT22;26539;51.064;6.346;2022-07-18T01:57:17;19.40;32.90
5218;DHT22;26539;51.064;6.346;2022-07-18T01:59:43;19.40;34.30
5218;DHT22;26539;51.064;6.346;2022-07-18T02:02:08;19.40;34.20
5218;DHT22;26539;51.064;6.346;2022-07-18T02:04:34;19.40;35.30
5218;DHT22;26539;51.064;6.346;2022-07-18T02:07:18;19.30;36.50
5218;DHT22;26539;51.064;6.346;2022-07-18T02:09:44;19.30;36.50
5218;DHT22;26539;51.064;6.346;2022-07-18T02:12:09;19.30;37.60
5218;DHT22;26539;51.064;6.346;2022-07-18T02:14:35;19.20;37.90
5218;DHT22;26539;51.064;6.346;2022-07-18T02:17:00;19.20;38.50
5218;DHT22;26539;51.064;6.346;2022-07-18T02:19:26;19.20;39.30
5218;DHT22;26539;51.064;6.346;2022-07-18T02:21:51;19.10;52.30
5218;DHT22;26539;51.064;6.346;2022-07-18T02:24:17;19.10;40.70
5218;DHT22;26539;51.064;6.346;2022-07-18T02:26:43;19.10;42.20
5218;DHT22;26539;51.064;6.346;2022-07-18T02:29:08;19.00;42.40
5218;DHT22;26539;51.064;6.346;2022-07-18T02:31:34;19.00;43.10
5218;DHT22;26539;51.064;6.346;2022-07-18T02:33:59;19.00;42.80
5218;DHT22;26539;51.064;6.346;2022-07-18T02:36:25;19.00;44.30
5218;DHT22;26539;51.064;6.346;2022-07-18T02:38:50;18.90;44.10
5218;DHT22;26539;51.064;6.346;2022-07-18T02:41:16;18.80;44.70
5218;DHT22;26539;51.064;6.346;2022-07-18T02:43:41;18.80;45.00
5218;DHT22;26539;51.064;6.346;2022-07-18T02:46:07;18.70;45.70
5218;DHT22;26539;51.064;6.346;2022-07-18T02:48:32;18.80;46.00
5218;DHT22;26539;51.064;6.346;2022-07-18T02:50:58;18.70;46.80
5218;DHT22;26539;51.064;6.346;2022-07-18T02:53:23;18.70;47.10
5218;DHT22;26539;51.064;6.346;2022-07-18T02:55:50;18.70;48.00
5218;DHT22;26539;51.064;6.346;2022-07-18T02:58:16;18.70;48.30
5218;DHT22;26539;51.064;6.346;2022-07-18T03:00:42;18.60;49.90
5218;DHT22;26539;51.064;6.346;2022-07-18T03:03:07;18.60;50.40
5218;DHT22;26539;51.064;6.346;2022-07-18T03:05:33;18.50;50.50
5218;DHT22;26539;51.064;6.346;2022-07-18T03:07:58;18.50;51.50
5218;DHT22;26539;51.064;6.346;2022-07-18T03:10:24;18.40;51.90
5218;DHT22;26539;51.064;6.346;2022-07-18T03:12:50;18.30;53.30
5218;DHT22;26539;51.064;6.346;2022-07-18T03:15:15;18.30;53.80
5218;DHT22;26539;51.064;6.346;2022-07-18T03:17:41;18.20;54.10
5218;DHT22;26539;51.064;6.346;2022-07-18T03:20:06;18.20;54.70
5218;DHT22;26539;51.064;6.346;2022-07-18T03:22:32;18.20;55.80
5218;DHT22;26539;51.064;6.346;2022-07-18T03:24:59;18.20;57.20
5218;DHT22;26539;51.064;6.346;2022-07-18T03:27:24;18.20;56.80
5218;DHT22;26539;51.064;6.346;2022-07-18T03:29:50;18.30;57.20
5218;DHT22;26539;51.064;6.346;2022-07-18T03:32:15;18.20;58.10
5218;DHT22;26539;51.064;6.346;2022-07-18T03:34:41;18.30;58.90
5218;DHT22;26539;51.064;6.346;2022-07-18T03:37:06;18.30;59.00
5218;DHT22;26539;51.064;6.346;2022-07-18T03:39:32;18.30;59.50
5218;DHT22;26539;51.064;6.346;2022-07-18T03:41:57;18.20;59.70
5218;DHT22;26539;51.064;6.346;2022-07-18T03:44:23;18.20;59.70
5218;DHT22;26539;51.064;6.346;2022-07-18T03:46:48;18.20;61.00
5218;DHT22;26539;51.064;6.346;2022-07-18T03:49:17;18.20;61.60
5218;DHT22;26539;51.064;6.346;2022-07-18T03:51:42;18.20;64.80
5218;DHT22;26539;51.064;6.346;2022-07-18T03:54:08;18.20;64.30
5218;DHT22;26539;51.064;6.346;2022-07-18T03:56:35;18.20;64.70
5218;DHT22;26539;51.064;6.346;2022-07-18T03:59:01;18.20;66.30
5218;DHT22;26539;51.064;6.346;2022-07-18T04:01:26;18.20;66.80
5218;DHT22;26539;51.064;6.346;2022-07-18T04:03:52;18.20;67.00
5218;DHT22;26539;51.064;6.346;2022-07-18T04:06:17;18.20;66.50
5218;DHT22;26539;51.064;6.346;2022-07-18T04:08:43;18.20;85.00
5218;DHT22;26539;51.064;6.346;2022-07-18T04:11:08;18.20;67.50
5218;DHT22;26539;51.064;6.346;2022-07-18T04:13:34;18.20;68.50
5218;DHT22;26539;51.064;6.346;2022-07-18T04:15:59;18.30;70.10
5218;DHT22;26539;51.064;6.346;2022-07-18T04:18:25;18.40;71.00
5218;DHT22;26539;51.064;6.346;2022-07-18T04:20:50;18.40;71.70
5218;DHT22;26539;51.064;6.346;2022-07-18T04:23:16;18.50;71.60
5218;DHT22;26539;51.064;6.346;2022-07-18T04:25:43;18.50;73.10
5218;DHT22;26539;51.064;6.346;2022-07-18T04:28:11;18.60;72.40
5218;DHT22;26539;51.064;6.346;2022-07-18T04:30:37;18.50;71.80
5218;DHT22;26539;51.064;6.346;2022-07-18T04:33:05;18.50;72.50
5218;DHT22;26539;51.064;6.346;2022-07-18T04:35:32;18.50;70.60
5218;DHT22;26539;51.064;6.346;2022-07-18T04:37:58;18.60;71.40
5218;DHT22;26539;51.064;6.346;2022-07-18T04:40:23;18.70;70.90
5218;DHT22;26539;51.064;6.346;2022-07-18T04:42:49;18.70;70.40
5218;DHT22;26539;51.064;6.346;2022-07-18T04:45:15;18.80;71.20
5218;DHT22;26539;51.064;6.346;2022-07-18T04:47:41;18.90;71.10
5218;DHT22;26539;51.064;6.346;2022-07-18T04:50:07;19.00;73.50
5218;DHT22;26539;51.064;6.346;2022-07-18T04:52:41;19.00;72.70
5218;DHT22;26539;51.064;6.346;2022-07-18T04:55:08;19.00;71.90
5218;DHT22;26539;51.064;6.346;2022-07-18T04:57:34;19.20;72.30
5218;DHT22;26539;51.064;6.346;2022-07-18T05:00:03;19.10;71.90
5218;DHT22;26539;51.064;6.346;2022-07-18T05:02:29;19.20;72.70
5218;DHT22;26539;51.064;6.346;2022-07-18T05:04:55;19.20;73.00
5218;DHT22;26539;51.064;6.346;2022-07-18T05:07:20;19.30;72.80
5218;DHT22;26539;51.064;6.346;2022-07-18T05:09:46;19.40;74.30
5218;DHT22;26539;51.064;6.346;2022-07-18T05:12:12;19.50;73.50
5218;DHT22;26539;51.064;6.346;2022-07-18T05:14:37;19.60;73.70
5218;DHT22;26539;51.064;6.346;2022-07-18T05:17:03;19.70;73.40
5218;DHT22;26539;51.064;6.346;2022-07-18T05:19:28;19.80;72.60
5218;DHT22;26539;51.064;6.346;2022-07-18T05:21:54;20.00;74.30
5218;DHT22;26539;51.064;6.346;2022-07-18T05:24:19;20.20;72.60
5218;DHT22;26539;51.064;6.346;2022-07-18T05:26:45;20.30;73.20
5218;DHT22;26539;51.064;6.346;2022-07-18T05:29:11;20.50;73.50
5218;DHT22;26539;51.064;6.346;2022-07-18T05:31:39;20.70;72.80
5218;DHT22;26539;51.064;6.346;2022-07-18T05:34:05;20.80;73.80
5218;DHT22;26539;51.064;6.346;2022-07-18T05:36:31;21.00;72.60
5218;DHT22;26539;51.064;6.346;2022-07-18T05:38:56;21.10;74.20
5218;DHT22;26539;51.064;6.346;2022-07-18T05:41:22;21.30;72.70
5218;DHT22;26539;51.064;6.346;2022-07-18T05:43:47;21.50;73.00
5218;DHT22;26539;51.064;6.346;2022-07-18T05:46:13;21.70;70.80
5218;DHT22;26539;51.064;6.346;2022-07-18T05:48:38;21.80;71.10
5218;DHT22;26539;51.064;6.346;2022-07-18T05:51:06;22.00;71.10
5218;DHT22;26539;51.064;6.346;2022-07-18T05:53:32;22.20;71.20
5218;DHT22;26539;51.064;6.346;2022-07-18T05:55:57;22.50;72.20
5218;DHT22;26539;51.064;6.346;2022-07-18T05:58:23;22.70;71.90
5218;DHT22;26539;51.064;6.346;2022-07-18T06:00:48;22.80;70.50
5218;DHT22;26539;51.064;6.346;2022-07-18T06:03:14;23.20;70.20
5218;DHT22;26539;51.064;6.346;2022-07-18T06:05:40;23.60;71.60
5218;DHT22;26539;51.064;6.346;2022-07-18T06:08:06;24.80;75.30
5218;DHT22;26539;51.064;6.346;2022-07-18T06:10:32;27.70;83.50
5218;DHT22;26539;51.064;6.346;2022-07-18T06:12:57;31.30;89.60
5218;DHT22;26539;51.064;6.346;2022-07-18T06:15:23;34.90;99.90
5218;DHT22;26539;51.064;6.346;2022-07-18T06:17:50;37.80;91.10
5218;DHT22;26539;51.064;6.346;2022-07-18T06:20:16;39.10;80.40
5218;DHT22;26539;51.064;6.346;2022-07-18T06:22:41;40.70;70.70
5218;DHT22;26539;51.064;6.346;2022-07-18T06:25:07;41.10;57.60
5218;DHT22;26539;51.064;6.346;2022-07-18T06:27:33;40.50;48.90
5218;DHT22;26539;51.064;6.346;2022-07-18T06:29:58;41.20;45.40
5218;DHT22;26539;51.064;6.346;2022-07-18T06:32:25;43.50;43.60
5218;DHT22;26539;51.064;6.346;2022-07-18T06:34:50;45.40;39.60
5218;DHT22;26539;51.064;6.346;2022-07-18T06:37:16;47.00;35.70
5218;DHT22;26539;51.064;6.346;2022-07-18T06:39:41;48.70;32.60
5218;DHT22;26539;51.064;6.346;2022-07-18T06:42:07;50.00;29.30
5218;DHT22;26539;51.064;6.346;2022-07-18T06:44:33;50.50;25.10
5218;DHT22;26539;51.064;6.346;2022-07-18T06:46:58;51.30;21.20
5218;DHT22;26539;51.064;6.346;2022-07-18T06:49:24;51.80;18.30
5218;DHT22;26539;51.064;6.346;2022-07-18T06:51:51;52.40;15.00
5218;DHT22;26539;51.064;6.346;2022-07-18T06:54:17;53.80;13.80
5218;DHT22;26539;51.064;6.346;2022-07-18T06:56:43;54.90;11.50
5218;DHT22;26539;51.064;6.346;2022-07-18T06:59:09;55.90;9.80
5218;DHT22;26539;51.064;6.346;2022-07-18T07:01:35;56.70;7.40
5218;DHT22;26539;51.064;6.346;2022-07-18T07:04:00;58.10;6.60
5218;DHT22;26539;51.064;6.346;2022-07-18T07:06:26;57.70;13.40
5218;DHT22;26539;51.064;6.346;2022-07-18T07:08:52;59.30;14.00
5218;DHT22;26539;51.064;6.346;2022-07-18T07:11:17;60.30;4.00
5218;DHT22;26539;51.064;6.346;2022-07-18T07:13:43;60.70;2.80
5218;DHT22;26539;51.064;6.346;2022-07-18T07:16:09;60.60;1.60
5218;DHT22;26539;51.064;6.346;2022-07-18T07:18:34;60.30;1.00
5218;DHT22;26539;51.064;6.346;2022-07-18T07:21:00;59.50;1.00
5218;DHT22;26539;51.064;6.346;2022-07-18T07:23:26;59.00;1.00
5218;DHT22;26539;51.064;6.346;2022-07-18T07:25:51;59.10;1.00
5218;DHT22;26539;51.064;6.346;2022-07-18T07:28:17;58.90;1.00
5218;DHT22;26539;51.064;6.346;2022-07-18T07:30:43;59.20;1.00
5218;DHT22;26539;51.064;6.346;2022-07-18T07:33:09;59.20;1.00
5218;DHT22;26539;51.064;6.346;2022-07-18T07:35:35;58.60;1.00
5218;DHT22;26539;51.064;6.346;2022-07-18T07:38:01;58.20;1.00
5218;DHT22;26539;51.064;6.346;2022-07-18T07:40:28;58.20;1.00
5218;DHT22;26539;51.064;6.346;2022-07-18T07:43:07;58.50;1.00
5218;DHT22;26539;51.064;6.346;2022-07-18T07:45:33;58.60;1.00
5218;DHT22;26539;51.064;6.346;2022-07-18T07:47:59;56.00;1.00
5218;DHT22;26539;51.064;6.346;2022-07-18T07:50:25;55.20;1.00
5218;DHT22;26539;51.064;6.346;2022-07-18T07:52:50;55.00;1.00
5218;DHT22;26539;51.064;6.346;2022-07-18T07:55:16;55.90;1.00
5218;DHT22;26539;51.064;6.346;2022-07-18T07:57:41;56.00;1.00
5218;DHT22;26539;51.064;6.346;2022-07-18T08:00:08;56.30;1.00
5218;DHT22;26539;51.064;6.346;2022-07-18T08:02:34;56.80;1.00
5218;DHT22;26539;51.064;6.346;2022-07-18T08:05:00;57.80;1.00
5218;DHT22;26539;51.064;6.346;2022-07-18T08:07:26;58.30;1.00
5218;DHT22;26539;51.064;6.346;2022-07-18T08:09:52;58.60;1.00
5218;DHT22;26539;51.064;6.346;2022-07-18T08:12:17;58.60;1.00
5218;DHT22;26539;51.064;6.346;2022-07-18T08:14:43;59.50;1.00
5218;DHT22;26539;51.064;6.346;2022-07-18T08:17:09;60.00;1.00
5218;DHT22;26539;51.064;6.346;2022-07-18T08:19:34;58.90;1.00
5218;DHT22;26539;51.064;6.346;2022-07-18T08:22:00;57.80;1.00
5218;DHT22;26539;51.064;6.346;2022-07-18T08:24:25;57.60;1.00
5218;DHT22;26539;51.064;6.346;2022-07-18T08:26:51;57.20;1.00
5218;DHT22;26539;51.064;6.346;2022-07-18T08:29:17;57.60;1.00
5218;DHT22;26539;51.064;6.346;2022-07-18T08:31:42;58.10;1.00
5218;DHT22;26539;51.064;6.346;2022-07-18T08:34:08;58.50;1.00
5218;DHT22;26539;51.064;6.346;2022-07-18T08:36:33;58.80;1.00
5218;DHT22;26539;51.064;6.346;2022-07-18T08:38:59;58.30;1.00
5218;DHT22;26539;51.064;6.346;2022-07-18T08:41:25;58.00;1.00
5218;DHT22;26539;51.064;6.346;2022-07-18T08:43:52;57.80;1.00
5218;DHT22;26539;51.064;6.346;2022-07-18T08:46:20;57.80;1.00
5218;DHT22;26539;51.064;6.346;2022-07-18T08:48:48;57.90;1.00
5218;DHT22;26539;51.064;6.346;2022-07-18T08:51:14;58.10;1.00
5218;DHT22;26539;51.064;6.346;2022-07-18T08:53:40;58.10;1.00
5218;DHT22;26539;51.064;6.346;2022-07-18T08:56:06;58.20;1.00
5218;DHT22;26539;51.064;6.346;2022-07-18T08:58:32;58.20;1.00
5218;DHT22;26539;51.064;6.346;2022-07-18T09:00:58;58.20;1.00
5218;DHT22;26539;51.064;6.346;2022-07-18T09:03:24;58.00;1.00
5218;DHT22;26539;51.064;6.346;2022-07-18T09:06:22;57.90;1.00
5218;DHT22;26539;51.064;6.346;2022-07-18T09:08:59;57.80;1.00
5218;DHT22;26539;51.064;6.346;2022-07-18T09:11:26;57.70;1.00
5218;DHT22;26539;51.064;6.346;2022-07-18T09:13:52;57.00;1.00
5218;DHT22;26539;51.064;6.346;2022-07-18T09:16:17;56.60;1.00
5218;DHT22;26539;51.064;6.346;2022-07-18T09:18:48;56.50;1.00
5218;DHT22;26539;51.064;6.346;2022-07-18T09:21:19;56.80;1.00
5218;DHT22;26539;51.064;6.346;2022-07-18T09:23:50;57.00;1.00
5218;DHT22;26539;51.064;6.346;2022-07-18T09:29:01;56.30;1.00
5218;DHT22;26539;51.064;6.346;2022-07-18T09:31:26;56.70;1.00
5218;DHT22;26539;51.064;6.346;2022-07-18T09:34:00;57.20;1.00
5218;DHT22;26539;51.064;6.346;2022-07-18T09:36:27;57.00;1.00
5218;DHT22;26539;51.064;6.346;2022-07-18T09:38:53;56.30;1.00
5218;DHT22;26539;51.064;6.346;2022-07-18T09:41:26;56.20;1.00
5218;DHT22;26539;51.064;6.346;2022-07-18T09:43:52;55.50;1.00
5218;DHT22;26539;51.064;6.346;2022-07-18T09:46:18;55.20;1.00
5218;DHT22;26539;51.064;6.346;2022-07-18T09:48:43;55.30;1.00
5218;DHT22;26539;51.064;6.346;2022-07-18T09:51:09;55.20;1.00
5218;DHT22;26539;51.064;6.346;2022-07-18T09:53:43;55.00;1.00
5218;DHT22;26539;51.064;6.346;2022-07-18T09:56:30;54.80;1.00
5218;DHT22;26539;51.064;6.346;2022-07-18T09:58:58;54.30;1.00
5218;DHT22;26539;51.064;6.346;2022-07-18T10:01:24;54.10;1.00
5218;DHT22;26539;51.064;6.346;2022-07-18T10:03:50;53.90;1.00
5218;DHT22;26539;51.064;6.346;2022-07-18T10:06:17;53.60;1.00
5218;DHT22;26539;51.064;6.346;2022-07-18T10:08:43;53.10;1.00
5218;DHT22;26539;51.064;6.346;2022-07-18T10:11:09;52.50;1.00
5218;DHT22;26539;51.064;6.346;2022-07-18T10:13:37;52.30;1.00
5218;DHT22;26539;51.064;6.346;2022-07-18T10:16:03;51.80;1.00
5218;DHT22;26539;51.064;6.346;2022-07-18T10:18:32;51.90;1.00
5218;DHT22;26539;51.064;6.346;2022-07-18T10:23:30;52.10;1.00
5218;DHT22;26539;51.064;6.346;2022-07-18T10:31:22;51.70;1.00
5218;DHT22;26539;51.064;6.346;2022-07-18T10:33:48;51.70;1.00
5218;DHT22;26539;51.064;6.346;2022-07-18T10:36:21;51.70;1.00
5218;DHT22;26539;51.064;6.346;2022-07-18T10:41:32;52.00;1.00
5218;DHT22;26539;51.064;6.346;2022-07-18T10:43:58;52.00;1.00
5218;DHT22;26539;51.064;6.346;2022-07-18T10:46:23;52.30;1.00
5218;DHT22;26539;51.064;6.346;2022-07-18T10:48:54;52.40;1.00
5218;DHT22;26539;51.064;6.346;2022-07-18T10:51:28;52.60;1.00
5218;DHT22;26539;51.064;6.346;2022-07-18T10:56:20;52.50;1.00
5218;DHT22;26539;51.064;6.346;2022-07-18T10:58:51;52.00;1.00
5218;DHT22;26539;51.064;6.346;2022-07-18T11:01:17;51.80;1.00
5218;DHT22;26539;51.064;6.346;2022-07-18T11:03:43;51.80;1.00
5218;DHT22;26539;51.064;6.346;2022-07-18T11:06:09;51.50;1.00
5218;DHT22;26539;51.064;6.346;2022-07-18T11:08:35;51.20;1.00
5218;DHT22;26539;51.064;6.346;2022-07-18T11:11:05;51.20;1.00
5218;DHT22;26539;51.064;6.346;2022-07-18T11:13:33;51.30;1.00
5218;DHT22;26539;51.064;6.346;2022-07-18T11:16:12;51.50;1.00
5218;DHT22;26539;51.064;6.346;2022-07-18T11:21:30;51.50;1.00
5218;DHT22;26539;51.064;6.346;2022-07-18T11:24:02;51.50;1.00
5218;DHT22;26539;51.064;6.346;2022-07-18T11:26:29;51.50;1.00
5218;DHT22;26539;51.064;6.346;2022-07-18T11:31:31;51.20;1.00
5218;DHT22;26539;51.064;6.346;2022-07-18T11:34:00;51.10;1.00
5218;DHT22;26539;51.064;6.346;2022-07-18T11:36:31;50.80;1.00
5218;DHT22;26539;51.064;6.346;2022-07-18T11:38:59;50.60;1.00
5218;DHT22;26539;51.064;6.346;2022-07-18T11:41:25;50.40;1.00
5218;DHT22;26539;51.064;6.346;2022-07-18T11:43:51;50.30;1.00
5218;DHT22;26539;51.064;6.346;2022-07-18T11:46:20;50.00;1.00
5218;DHT22;26539;51.064;6.346;2022-07-18T11:48:57;49.70;1.00
5218;DHT22;26539;51.064;6.346;2022-07-18T11:51:23;49.50;1.00
5218;DHT22;26539;51.064;6.346;2022-07-18T11:53:53;49.50;1.00
5218;DHT22;26539;51.064;6.346;2022-07-18T11:56:22;49.50;1.00
5218;DHT22;26539;51.064;6.346;2022-07-18T11:58:49;49.50;1.00
5218;DHT22;26539;51.064;6.346;2022-07-18T12:01:18;49.30;1.00
5218;DHT22;26539;51.064;6.346;2022-07-18T12:03:46;49.10;1.00
5218;DHT22;26539;51.064;6.346;2022-07-18T12:06:22;49.20;1.00
5218;DHT22;26539;51.064;6.346;2022-07-18T12:08:50;49.30;1.00
5218;DHT22;26539;51.064;6.346;2022-07-18T12:11:18;49.20;1.00
5218;DHT22;26539;51.064;6.346;2022-07-18T12:14:12;49.20;1.00
5218;DHT22;26539;51.064;6.346;2022-07-18T12:16:39;49.20;1.00
5218;DHT22;26539;51.064;6.346;2022-07-18T12:19:07;48.90;1.00
5218;DHT22;26539;51.064;6.346;2022-07-18T12:24:40;48.80;1.00
5218;DHT22;26539;51.064;6.346;2022-07-18T12:32:30;48.50;1.00
5218;DHT22;26539;51.064;6.346;2022-07-18T12:34:57;48.10;1.00
5218;DHT22;26539;51.064;6.346;2022-07-18T12:37:27;48.10;1.00
5218;DHT22;26539;51.064;6.346;2022-07-18T12:40:18;48.10;1.00
5218;DHT22;26539;51.064;6.346;2022-07-18T12:42:43;48.00;1.00
5218;DHT22;26539;51.064;6.346;2022-07-18T12:45:11;47.80;1.00
5218;DHT22;26539;51.064;6.346;2022-07-18T12:47:37;47.60;1.00
5218;DHT22;26539;51.064;6.346;2022-07-18T12:50:04;47.40;1.00
5218;DHT22;26539;51.064;6.346;2022-07-18T12:52:30;47.20;1.00
5218;DHT22;26539;51.064;6.346;2022-07-18T12:54:56;47.10;1.00
5218;DHT22;26539;51.064;6.346;2022-07-18T12:57:22;46.80;1.00
5218;DHT22;26539;51.064;6.346;2022-07-18T12:59:48;46.50;1.00
5218;DHT22;26539;51.064;6.346;2022-07-18T13:02:15;46.20;1.00
5218;DHT22;26539;51.064;6.346;2022-07-18T13:04:41;46.00;1.00
5218;DHT22;26539;51.064;6.346;2022-07-18T13:07:06;45.70;1.00
5218;DHT22;26539;51.064;6.346;2022-07-18T13:09:32;45.60;1.00
5218;DHT22;26539;51.064;6.346;2022-07-18T13:11:59;45.60;1.00
5218;DHT22;26539;51.064;6.346;2022-07-18T13:14:25;45.10;1.00
5218;DHT22;26539;51.064;6.346;2022-07-18T13:16:52;45.20;1.00
5218;DHT22;26539;51.064;6.346;2022-07-18T13:19:20;45.20;1.00
5218;DHT22;26539;51.064;6.346;2022-07-18T13:21:46;45.10;1.00
5218;DHT22;26539;51.064;6.346;2022-07-18T13:24:13;44.80;1.00
5218;DHT22;26539;51.064;6.346;2022-07-18T13:26:40;44.70;1.00
5218;DHT22;26539;51.064;6.346;2022-07-18T13:29:06;44.60;1.00
5218;DHT22;26539;51.064;6.346;2022-07-18T13:31:31;44.40;1.00
5218;DHT22;26539;51.064;6.346;2022-07-18T13:33:58;44.00;1.00
5218;DHT22;26539;51.064;6.346;2022-07-18T13:36:24;43.50;1.00
5218;DHT22;26539;51.064;6.346;2022-07-18T13:38:49;43.30;1.00
5218;DHT22;26539;51.064;6.346;2022-07-18T13:41:15;43.10;1.00
5218;DHT22;26539;51.064;6.346;2022-07-18T13:43:41;42.90;1.00
5218;DHT22;26539;51.064;6.346;2022-07-18T13:46:08;42.70;1.00
5218;DHT22;26539;51.064;6.346;2022-07-18T13:48:33;42.80;1.00
5218;DHT22;26539;51.064;6.346;2022-07-18T13:50:59;42.80;1.00
5218;DHT22;26539;51.064;6.346;2022-07-18T13:53:25;42.80;1.00
5218;DHT22;26539;51.064;6.346;2022-07-18T13:55:51;42.60;1.00
5218;DHT22;26539;51.064;6.346;2022-07-18T13:58:17;42.40;1.00
5218;DHT22;26539;51.064;6.346;2022-07-18T14:00:44;42.30;1.00
5218;DHT22;26539;51.064;6.346;2022-07-18T14:03:09;42.30;1.00
5218;DHT22;26539;51.064;6.346;2022-07-18T14:05:39;42.20;1.00
5218;DHT22;26539;51.064;6.346;2022-07-18T14:08:05;42.00;1.00
5218;DHT22;26539;51.064;6.346;2022-07-18T14:10:31;41.50;1.00
5218;DHT22;26539;51.064;6.346;2022-07-18T14:12:57;41.20;1.00
5218;DHT22;26539;51.064;6.346;2022-07-18T14:15:23;41.00;1.00
5218;DHT22;26539;51.064;6.346;2022-07-18T14:17:48;40.90;1.00
5218;DHT22;26539;51.064;6.346;2022-07-18T14:20:14;40.80;1.00
5218;DHT22;26539;51.064;6.346;2022-07-18T14:22:40;40.60;1.00
5218;DHT22;26539;51.064;6.346;2022-07-18T14:25:08;40.50;1.00
5218;DHT22;26539;51.064;6.346;2022-07-18T14:27:34;40.20;1.00
5218;DHT22;26539;51.064;6.346;2022-07-18T14:30:00;40.10;1.00
5218;DHT22;26539;51.064;6.346;2022-07-18T14:32:27;40.10;1.00
5218;DHT22;26539;51.064;6.346;2022-07-18T14:34:53;39.90;1.00
5218;DHT22;26539;51.064;6.346;2022-07-18T14:37:18;39.70;1.00
5218;DHT22;26539;51.064;6.346;2022-07-18T14:39:44;39.60;1.00
5218;DHT22;26539;51.064;6.346;2022-07-18T14:42:10;39.40;1.00
5218;DHT22;26539;51.064;6.346;2022-07-18T14:44:37;39.20;1.00
5218;DHT22;26539;51.064;6.346;2022-07-18T14:47:03;39.20;1.00
5218;DHT22;26539;51.064;6.346;2022-07-18T14:49:29;39.10;1.00
5218;DHT22;26539;51.064;6.346;2022-07-18T14:51:58;39.00;1.00
5218;DHT22;26539;51.064;6.346;2022-07-18T14:54:26;39.10;1.00
5218;DHT22;26539;51.064;6.346;2022-07-18T14:56:55;39.20;1.00
5218;DHT22;26539;51.064;6.346;2022-07-18T14:59:22;39.10;1.00
5218;DHT22;26539;51.064;6.346;2022-07-18T15:01:48;39.10;1.00
5218;DHT22;26539;51.064;6.346;2022-07-18T15:04:14;39.00;1.00
5218;DHT22;26539;51.064;6.346;2022-07-18T15:06:54;38.80;1.00
5218;DHT22;26539;51.064;6.346;2022-07-18T15:10:05;38.80;1.00
5218;DHT22;26539;51.064;6.346;2022-07-18T15:12:42;38.70;1.00
5218;DHT22;26539;51.064;6.346;2022-07-18T15:15:16;38.50;1.00
5218;DHT22;26539;51.064;6.346;2022-07-18T15:17:45;38.50;1.00
5218;DHT22;26539;51.064;6.346;2022-07-18T15:20:12;38.60;1.00
5218;DHT22;26539;51.064;6.346;2022-07-18T15:22:38;38.70;1.00
5218;DHT22;26539;51.064;6.346;2022-07-18T15:25:04;38.70;1.00
5218;DHT22;26539;51.064;6.346;2022-07-18T15:27:30;38.60;1.00
5218;DHT22;26539;51.064;6.346;2022-07-18T15:29:56;38.50;1.00
5218;DHT22;26539;51.064;6.346;2022-07-18T15:32:21;38.30;1.00
5218;DHT22;26539;51.064;6.346;2022-07-18T15:34:47;38.30;1.00
5218;DHT22;26539;51.064;6.346;2022-07-18T15:37:12;38.30;1.00
5218;DHT22;26539;51.064;6.346;2022-07-18T15:39:38;38.20;1.00
5218;DHT22;26539;51.064;6.346;2022-07-18T15:42:03;38.20;1.00
5218;DHT22;26539;51.064;6.346;2022-07-18T15:44:29;38.20;1.00
5218;DHT22;26539;51.064;6.346;2022-07-18T15:46:55;38.10;1.00
5218;DHT22;26539;51.064;6.346;2022-07-18T15:49:20;38.20;1.00
5218;DHT22;26539;51.064;6.346;2022-07-18T15:51:46;38.20;1.00
5218;DHT22;26539;51.064;6.346;2022-07-18T15:54:13;38.10;1.00
5218;DHT22;26539;51.064;6.346;2022-07-18T15:56:39;38.10;1.00
5218;DHT22;26539;51.064;6.346;2022-07-18T15:59:05;38.10;1.00
5218;DHT22;26539;51.064;6.346;2022-07-18T16:01:31;38.10;1.00
5218;DHT22;26539;51.064;6.346;2022-07-18T16:03:56;37.90;1.00
5218;DHT22;26539;51.064;6.346;2022-07-18T16:06:22;37.90;1.00
5218;DHT22;26539;51.064;6.346;2022-07-18T16:08:47;37.80;1.00
5218;DHT22;26539;51.064;6.346;2022-07-18T16:11:13;37.70;1.00
5218;DHT22;26539;51.064;6.346;2022-07-18T16:13:38;37.80;1.00
5218;DHT22;26539;51.064;6.346;2022-07-18T16:16:04;37.70;1.00
5218;DHT22;26539;51.064;6.346;2022-07-18T16:18:30;37.60;1.00
5218;DHT22;26539;51.064;6.346;2022-07-18T16:20:56;37.50;1.00